Weldon, CA (93283)

6:16 AM PST on February 11, 2016 (GMT -0800)
Weldon (Lake Isabella) | | Change Station
CLOSE
Current Station
Personal Weather Station
Location: Weldon, CA
Elevation: 3196 ft
Nearby Weather Stations

Elev 3196 ft 35.63 °N, 118.34 °W | Updated 3 seconds ago

Clear
Clear
44.6 °F
Feels Like 42 °F
N
5.1
Wind Variable Wind from South
Gusts 7.4 mph

Today
High -- | Low -- °F
--% Chance of Precip.
Yesterday
High -- | Low -- °F
Precip. -- in
Pressure 30.25 in
Visibility 10.0 miles
Clouds Clear
Windchill 42 °F
Dew Point 30 °F
Humidity 56%
Rainfall 0.00 in
Snow Depth Not available.
6:44 AM 5:30 PM
Waxing Crescent, 12% visible
METAR KNID 111356Z 27003KT 10SM CLR 01/M03 A3024 RMK AO2 SLP243 T00061033 $
Pressure 30.25 in
Visibility 10.0 miles
Clouds Clear
Windchill 42 °F
Dew Point 30 °F
Humidity 56%
Rainfall 0.00 in
Snow Depth Not available.
6:44 AM 5:30 PM
Waxing Crescent, 12% visible
METAR KNID 111356Z 27003KT 10SM CLR 01/M03 A3024 RMK AO2 SLP243 T00061033 $

10-Day Weather Forecast

Almanac

Astronomy

Feb. 11, 2016 Rise Set
Actual Time
Civil Twilight
Nautical Twilight
Astronomical Twilight
Moon
Length of Visible Light
Length of Day
Tomorrow will be .
, % of the Moon is Illuminated

Today's Extremes

State Highs State Lows

Community

WunderPhotos

Upload Photos

1,892,048 photos uploaded!

WunderBlog® & News

Nearby

Air Quality

  Air Quality AQ Index Pollutant
Not available.

Snow Depth

Station Depth Elevation

Earthquake Activity

City Distance Mag. Time & Date
Minimum magnitude displayed is 2.5.

Coastal Water Temperatures

Place Temperature

Stations

Nearby Weather Stations

Station Location Temp. Windchill Dew Point Humidity Wind Precip. Elev Updated Type
                   

Watches & Warnings

There are currently no watches in effect.